sensor_id;sensor_type;location;lat;lon;timestamp;pressure;altitude;pressure_sealevel;temperature;humidity
45763;BME280;37512;52.408;13.356;2023-03-01T00:03:02;102646.41;;;-1.90;100.00
45763;BME280;37512;52.408;13.356;2023-03-01T00:07:04;102643.81;;;-1.96;100.00
45763;BME280;37512;52.408;13.356;2023-03-01T00:11:27;102647.06;;;-2.18;100.00
45763;BME280;37512;52.408;13.356;2023-03-01T00:15:28;102629.13;;;-2.07;100.00
45763;BME280;37512;52.408;13.356;2023-03-01T00:19:30;102624.28;;;-2.05;100.00
45763;BME280;37512;52.408;13.356;2023-03-01T00:23:34;102622.25;;;-2.09;100.00
45763;BME280;37512;52.408;13.356;2023-03-01T00:27:36;102624.19;;;-2.28;100.00
45763;BME280;37512;52.408;13.356;2023-03-01T00:31:37;102621.22;;;-2.39;100.00
45763;BME280;37512;52.408;13.356;2023-03-01T00:35:39;102623.81;;;-2.44;100.00
45763;BME280;37512;52.408;13.356;2023-03-01T00:39:40;102614.72;;;-2.38;100.00
45763;BME280;37512;52.408;13.356;2023-03-01T00:43:44;102612.34;;;-2.46;100.00
45763;BME280;37512;52.408;13.356;2023-03-01T00:47:45;102612.13;;;-2.63;100.00
45763;BME280;37512;52.408;13.356;2023-03-01T00:51:47;102611.31;;;-2.63;100.00
45763;BME280;37512;52.408;13.356;2023-03-01T00:55:48;102597.13;;;-2.65;100.00
45763;BME280;37512;52.408;13.356;2023-03-01T00:59:50;102603.72;;;-2.73;100.00
45763;BME280;37512;52.408;13.356;2023-03-01T01:03:55;102604.41;;;-2.78;100.00
45763;BME280;37512;52.408;13.356;2023-03-01T01:07:57;102608.16;;;-2.79;100.00
45763;BME280;37512;52.408;13.356;2023-03-01T01:11:59;102603.75;;;-3.28;100.00
45763;BME280;37512;52.408;13.356;2023-03-01T01:16:01;102599.16;;;-3.28;100.00
45763;BME280;37512;52.408;13.356;2023-03-01T01:20:03;102591.69;;;-3.14;100.00
45763;BME280;37512;52.408;13.356;2023-03-01T01:24:05;102587.78;;;-2.88;100.00
45763;BME280;37512;52.408;13.356;2023-03-01T01:28:06;102573.59;;;-2.90;100.00
45763;BME280;37512;52.408;13.356;2023-03-01T01:32:08;102573.03;;;-3.10;100.00
45763;BME280;37512;52.408;13.356;2023-03-01T01:36:10;102577.72;;;-3.18;100.00
45763;BME280;37512;52.408;13.356;2023-03-01T01:40:12;102576.44;;;-3.15;100.00
45763;BME280;37512;52.408;13.356;2023-03-01T01:44:15;102565.81;;;-3.53;100.00
45763;BME280;37512;52.408;13.356;2023-03-01T01:48:21;102568.53;;;-3.17;100.00
45763;BME280;37512;52.408;13.356;2023-03-01T01:52:34;102580.50;;;-3.43;100.00
45763;BME280;37512;52.408;13.356;2023-03-01T01:56:37;102578.72;;;-3.30;100.00
45763;BME280;37512;52.408;13.356;2023-03-01T02:00:40;102580.56;;;-3.93;100.00
45763;BME280;37512;52.408;13.356;2023-03-01T02:04:42;102585.63;;;-3.96;100.00
45763;BME280;37512;52.408;13.356;2023-03-01T02:08:45;102572.53;;;-3.81;100.00
45763;BME280;37512;52.408;13.356;2023-03-01T02:12:48;102570.75;;;-3.69;100.00
45763;BME280;37512;52.408;13.356;2023-03-01T02:16:50;102583.53;;;-3.51;100.00
45763;BME280;37512;52.408;13.356;2023-03-01T02:29:37;102570.50;;;-3.24;100.00
45763;BME280;37512;52.408;13.356;2023-03-01T02:33:40;102571.31;;;-3.60;100.00
45763;BME280;37512;52.408;13.356;2023-03-01T02:37:44;102558.28;;;-3.33;100.00
45763;BME280;37512;52.408;13.356;2023-03-01T02:41:56;102570.56;;;-3.49;100.00
45763;BME280;37512;52.408;13.356;2023-03-01T02:46:03;102577.78;;;-3.43;100.00
45763;BME280;37512;52.408;13.356;2023-03-01T02:54:43;102572.50;;;-3.56;100.00
45763;BME280;37512;52.408;13.356;2023-03-01T02:58:48;102569.28;;;-3.90;100.00
45763;BME280;37512;52.408;13.356;2023-03-01T03:02:53;102569.16;;;-3.76;100.00
45763;BME280;37512;52.408;13.356;2023-03-01T03:06:55;102558.41;;;-3.46;100.00
45763;BME280;37512;52.408;13.356;2023-03-01T03:10:57;102560.81;;;-3.57;100.00
45763;BME280;37512;52.408;13.356;2023-03-01T03:14:58;102549.81;;;-3.62;100.00
45763;BME280;37512;52.408;13.356;2023-03-01T03:18:59;102558.63;;;-3.66;100.00
45763;BME280;37512;52.408;13.356;2023-03-01T03:23:06;102556.19;;;-3.74;100.00
45763;BME280;37512;52.408;13.356;2023-03-01T03:27:08;102547.59;;;-4.15;100.00
45763;BME280;37512;52.408;13.356;2023-03-01T03:31:10;102544.47;;;-3.93;100.00
45763;BME280;37512;52.408;13.356;2023-03-01T03:35:11;102541.50;;;-3.85;100.00
45763;BME280;37512;52.408;13.356;2023-03-01T03:39:13;102533.91;;;-4.02;100.00
45763;BME280;37512;52.408;13.356;2023-03-01T03:43:19;102530.31;;;-3.95;100.00
45763;BME280;37512;52.408;13.356;2023-03-01T03:47:21;102526.47;;;-3.88;100.00
45763;BME280;37512;52.408;13.356;2023-03-01T03:51:23;102532.50;;;-3.86;100.00
45763;BME280;37512;52.408;13.356;2023-03-01T03:55:24;102524.44;;;-3.92;100.00
45763;BME280;37512;52.408;13.356;2023-03-01T03:59:31;102525.34;;;-3.98;100.00
45763;BME280;37512;52.408;13.356;2023-03-01T04:03:33;102520.19;;;-4.07;100.00
45763;BME280;37512;52.408;13.356;2023-03-01T04:07:37;102518.69;;;-4.03;100.00
45763;BME280;37512;52.408;13.356;2023-03-01T04:11:39;102521.69;;;-4.11;100.00
45763;BME280;37512;52.408;13.356;2023-03-01T04:15:41;102521.22;;;-4.26;100.00
45763;BME280;37512;52.408;13.356;2023-03-01T04:19:44;102528.22;;;-4.18;100.00
45763;BME280;37512;52.408;13.356;2023-03-01T04:23:50;102520.84;;;-4.11;100.00
45763;BME280;37512;52.408;13.356;2023-03-01T04:27:53;102519.72;;;-4.54;100.00
45763;BME280;37512;52.408;13.356;2023-03-01T04:31:55;102514.94;;;-4.27;100.00
45763;BME280;37512;52.408;13.356;2023-03-01T04:35:56;102515.84;;;-4.33;100.00
45763;BME280;37512;52.408;13.356;2023-03-01T04:39:58;102516.16;;;-4.48;100.00
45763;BME280;37512;52.408;13.356;2023-03-01T04:44:00;102514.94;;;-4.27;100.00
45763;BME280;37512;52.408;13.356;2023-03-01T04:48:02;102511.19;;;-4.26;100.00
45763;BME280;37512;52.408;13.356;2023-03-01T04:52:04;102507.88;;;-4.28;100.00
45763;BME280;37512;52.408;13.356;2023-03-01T04:56:07;102504.22;;;-4.40;100.00
45763;BME280;37512;52.408;13.356;2023-03-01T05:00:10;102501.72;;;-4.42;100.00
45763;BME280;37512;52.408;13.356;2023-03-01T05:04:25;102502.22;;;-4.51;100.00
45763;BME280;37512;52.408;13.356;2023-03-01T05:08:27;102501.97;;;-4.50;100.00
45763;BME280;37512;52.408;13.356;2023-03-01T05:12:28;102511.44;;;-4.59;100.00
45763;BME280;37512;52.408;13.356;2023-03-01T05:16:30;102504.47;;;-4.48;100.00
45763;BME280;37512;52.408;13.356;2023-03-01T05:20:37;102504.69;;;-4.50;100.00
45763;BME280;37512;52.408;13.356;2023-03-01T05:24:39;102501.72;;;-4.42;100.00
45763;BME280;37512;52.408;13.356;2023-03-01T05:28:40;102501.56;;;-4.47;100.00
45763;BME280;37512;52.408;13.356;2023-03-01T05:32:44;102503.31;;;-4.91;100.00
45763;BME280;37512;52.408;13.356;2023-03-01T05:36:46;102507.66;;;-5.21;100.00
45763;BME280;37512;52.408;13.356;2023-03-01T05:40:48;102502.41;;;-5.16;100.00
45763;BME280;37512;52.408;13.356;2023-03-01T05:44:50;102492.13;;;-4.69;100.00
45763;BME280;37512;52.408;13.356;2023-03-01T05:48:51;102502.63;;;-4.54;100.00
45763;BME280;37512;52.408;13.356;2023-03-01T05:53:11;102493.69;;;-4.55;100.00
45763;BME280;37512;52.408;13.356;2023-03-01T05:57:12;102502.47;;;-4.59;100.00
45763;BME280;37512;52.408;13.356;2023-03-01T06:01:14;102500.22;;;-4.63;100.00
45763;BME280;37512;52.408;13.356;2023-03-01T06:05:15;102508.16;;;-4.68;100.00
45763;BME280;37512;52.408;13.356;2023-03-01T06:09:17;102500.22;;;-4.94;100.00
45763;BME280;37512;52.408;13.356;2023-03-01T06:13:19;102496.13;;;-4.72;100.00
45763;BME280;37512;52.408;13.356;2023-03-01T06:17:20;102497.97;;;-4.72;100.00
45763;BME280;37512;52.408;13.356;2023-03-01T06:21:22;102491.91;;;-4.68;100.00
45763;BME280;37512;52.408;13.356;2023-03-01T06:25:25;102496.56;;;-4.81;100.00
45763;BME280;37512;52.408;13.356;2023-03-01T06:29:27;102501.00;;;-4.87;100.00
45763;BME280;37512;52.408;13.356;2023-03-01T06:33:28;102495.00;;;-4.64;100.00
45763;BME280;37512;52.408;13.356;2023-03-01T06:37:30;102496.75;;;-4.45;100.00
45763;BME280;37512;52.408;13.356;2023-03-01T06:41:32;102501.44;;;-4.33;100.00
45763;BME280;37512;52.408;13.356;2023-03-01T06:45:34;102504.03;;;-4.20;100.00
45763;BME280;37512;52.408;13.356;2023-03-01T06:49:36;102507.69;;;-4.08;100.00
45763;BME280;37512;52.408;13.356;2023-03-01T06:53:37;102511.03;;;-3.87;100.00
45763;BME280;37512;52.408;13.356;2023-03-01T06:57:39;102502.59;;;-3.79;100.00
45763;BME280;37512;52.408;13.356;2023-03-01T07:01:41;102492.66;;;-3.67;100.00
45763;BME280;37512;52.408;13.356;2023-03-01T07:05:42;102501.47;;;-3.34;100.00
45763;BME280;37512;52.408;13.356;2023-03-01T07:09:45;102506.66;;;-3.14;100.00
45763;BME280;37512;52.408;13.356;2023-03-01T07:13:46;102519.00;;;-3.00;100.00
45763;BME280;37512;52.408;13.356;2023-03-01T07:17:48;102510.81;;;-2.70;100.00
45763;BME280;37512;52.408;13.356;2023-03-01T07:21:51;102516.78;;;-2.49;100.00
45763;BME280;37512;52.408;13.356;2023-03-01T07:25:54;102517.41;;;-2.36;100.00
45763;BME280;37512;52.408;13.356;2023-03-01T07:29:55;102523.22;;;-2.20;100.00
45763;BME280;37512;52.408;13.356;2023-03-01T07:33:57;102523.34;;;-2.15;100.00
45763;BME280;37512;52.408;13.356;2023-03-01T07:37:58;102521.81;;;-1.76;100.00
45763;BME280;37512;52.408;13.356;2023-03-01T07:42:00;102519.03;;;-1.40;100.00
45763;BME280;37512;52.408;13.356;2023-03-01T07:46:02;102519.22;;;-1.18;100.00
45763;BME280;37512;52.408;13.356;2023-03-01T07:50:04;102517.28;;;-1.06;100.00
45763;BME280;37512;52.408;13.356;2023-03-01T07:54:06;102526.16;;;-0.53;100.00
45763;BME280;37512;52.408;13.356;2023-03-01T07:58:08;102518.09;;;-0.14;100.00
45763;BME280;37512;52.408;13.356;2023-03-01T08:02:10;102511.13;;;-0.05;100.00
45763;BME280;37512;52.408;13.356;2023-03-01T08:06:14;102514.97;;;0.16;100.00
45763;BME280;37512;52.408;13.356;2023-03-01T08:10:16;102510.34;;;0.77;100.00
45763;BME280;37512;52.408;13.356;2023-03-01T08:14:18;102511.25;;;0.83;100.00
45763;BME280;37512;52.408;13.356;2023-03-01T08:18:20;102514.47;;;1.29;100.00
45763;BME280;37512;52.408;13.356;2023-03-01T08:22:22;102495.16;;;1.41;100.00
45763;BME280;37512;52.408;13.356;2023-03-01T08:26:23;102494.22;;;1.95;100.00
45763;BME280;37512;52.408;13.356;2023-03-01T08:30:25;102505.78;;;2.44;92.51
45763;BME280;37512;52.408;13.356;2023-03-01T08:34:27;102496.84;;;2.69;87.40
45763;BME280;37512;52.408;13.356;2023-03-01T08:38:28;102493.00;;;2.76;86.16
45763;BME280;37512;52.408;13.356;2023-03-01T08:42:30;102499.91;;;2.83;80.56
45763;BME280;37512;52.408;13.356;2023-03-01T08:46:36;102494.22;;;3.10;89.76
45763;BME280;37512;52.408;13.356;2023-03-01T08:50:38;102497.47;;;2.92;93.18
45763;BME280;37512;52.408;13.356;2023-03-01T08:54:42;102486.25;;;3.09;92.14
45763;BME280;37512;52.408;13.356;2023-03-01T08:58:45;102502.47;;;3.10;89.06
45763;BME280;37512;52.408;13.356;2023-03-01T09:02:47;102490.66;;;3.15;88.91
45763;BME280;37512;52.408;13.356;2023-03-01T09:06:49;102490.63;;;2.95;90.53
45763;BME280;37512;52.408;13.356;2023-03-01T09:10:50;102482.97;;;3.12;86.53
45763;BME280;37512;52.408;13.356;2023-03-01T09:14:52;102480.25;;;3.94;77.19
45763;BME280;37512;52.408;13.356;2023-03-01T09:18:54;102472.31;;;3.77;80.74
45763;BME280;37512;52.408;13.356;2023-03-01T09:22:55;102465.16;;;3.81;79.60
45763;BME280;37512;52.408;13.356;2023-03-01T09:26:57;102462.34;;;4.12;75.43
45763;BME280;37512;52.408;13.356;2023-03-01T09:30:59;102467.78;;;4.32;73.35
45763;BME280;37512;52.408;13.356;2023-03-01T09:35:02;102473.91;;;3.17;78.59
45763;BME280;37512;52.408;13.356;2023-03-01T09:39:06;102462.09;;;4.13;72.03
45763;BME280;37512;52.408;13.356;2023-03-01T09:43:29;102461.41;;;4.52;62.68
45763;BME280;37512;52.408;13.356;2023-03-01T09:47:35;102453.31;;;4.71;64.53
45763;BME280;37512;52.408;13.356;2023-03-01T09:51:37;102452.41;;;5.31;63.05
45763;BME280;37512;52.408;13.356;2023-03-01T10:05:04;102460.28;;;5.77;58.66
45763;BME280;37512;52.408;13.356;2023-03-01T10:09:17;102461.94;;;5.78;57.03
45763;BME280;37512;52.408;13.356;2023-03-01T10:13:37;102457.81;;;6.10;57.26
45763;BME280;37512;52.408;13.356;2023-03-01T10:17:57;102459.78;;;6.52;54.62
45763;BME280;37512;52.408;13.356;2023-03-01T10:30:38;102467.31;;;6.89;51.42
45763;BME280;37512;52.408;13.356;2023-03-01T10:34:42;102454.44;;;7.37;49.41
45763;BME280;37512;52.408;13.356;2023-03-01T10:38:53;102444.03;;;7.66;45.76
45763;BME280;37512;52.408;13.356;2023-03-01T10:42:58;102434.34;;;8.38;43.80
45763;BME280;37512;52.408;13.356;2023-03-01T10:47:00;102437.94;;;7.97;44.13
45763;BME280;37512;52.408;13.356;2023-03-01T10:55:19;102429.13;;;8.09;41.63
45763;BME280;37512;52.408;13.356;2023-03-01T10:59:36;102433.63;;;8.05;41.10
45763;BME280;37512;52.408;13.356;2023-03-01T11:03:38;102430.41;;;8.44;41.09
45763;BME280;37512;52.408;13.356;2023-03-01T11:07:54;102415.00;;;8.10;40.91
45763;BME280;37512;52.408;13.356;2023-03-01T11:12:00;102406.97;;;7.35;40.88
45763;BME280;37512;52.408;13.356;2023-03-01T11:16:11;102404.03;;;8.97;40.17
45763;BME280;37512;52.408;13.356;2023-03-01T11:24:15;102401.94;;;10.10;36.92
45763;BME280;37512;52.408;13.356;2023-03-01T11:28:19;102395.72;;;9.73;36.90
45763;BME280;37512;52.408;13.356;2023-03-01T11:32:25;102390.13;;;9.11;36.48
45763;BME280;37512;52.408;13.356;2023-03-01T11:45:13;102391.19;;;9.77;35.48
45763;BME280;37512;52.408;13.356;2023-03-01T11:49:36;102388.72;;;11.17;34.69
45763;BME280;37512;52.408;13.356;2023-03-01T11:53:58;102388.47;;;11.65;37.31
45763;BME280;37512;52.408;13.356;2023-03-01T12:20:02;102369.78;;;11.01;34.62
45763;BME280;37512;52.408;13.356;2023-03-01T12:24:25;102353.97;;;11.58;33.39
45763;BME280;37512;52.408;13.356;2023-03-01T12:33:08;102355.50;;;11.93;32.94
45763;BME280;37512;52.408;13.356;2023-03-01T12:37:23;102342.16;;;12.38;32.73
45763;BME280;37512;52.408;13.356;2023-03-01T12:50:01;102322.41;;;11.54;33.40
45763;BME280;37512;52.408;13.356;2023-03-01T12:54:15;102321.41;;;11.58;32.76
45763;BME280;37512;52.408;13.356;2023-03-01T12:58:28;102317.50;;;12.27;31.12
45763;BME280;37512;52.408;13.356;2023-03-01T13:11:21;102309.63;;;12.71;29.70
45763;BME280;37512;52.408;13.356;2023-03-01T13:19:27;102300.66;;;10.91;31.03
45763;BME280;37512;52.408;13.356;2023-03-01T13:23:39;102297.47;;;11.75;29.13
45763;BME280;37512;52.408;13.356;2023-03-01T13:27:42;102297.25;;;10.77;31.04
45763;BME280;37512;52.408;13.356;2023-03-01T13:31:55;102287.09;;;10.81;29.73
45763;BME280;37512;52.408;13.356;2023-03-01T13:35:58;102284.50;;;10.41;30.01
45763;BME280;37512;52.408;13.356;2023-03-01T13:48:28;102270.63;;;12.71;27.47
45763;BME280;37512;52.408;13.356;2023-03-01T13:52:37;102261.50;;;12.50;27.82
45763;BME280;37512;52.408;13.356;2023-03-01T13:56:40;102264.75;;;13.18;27.47
45763;BME280;37512;52.408;13.356;2023-03-01T14:00:43;102261.78;;;13.48;27.31
45763;BME280;37512;52.408;13.356;2023-03-01T14:04:56;102257.72;;;13.46;26.92
45763;BME280;37512;52.408;13.356;2023-03-01T14:09:18;102253.75;;;12.89;27.66
45763;BME280;37512;52.408;13.356;2023-03-01T14:17:47;102229.84;;;11.15;28.90
45763;BME280;37512;52.408;13.356;2023-03-01T14:22:12;102232.91;;;12.74;27.89
45763;BME280;37512;52.408;13.356;2023-03-01T14:26:21;102228.75;;;13.26;27.55
45763;BME280;37512;52.408;13.356;2023-03-01T14:30:30;102237.84;;;13.72;26.40
45763;BME280;37512;52.408;13.356;2023-03-01T14:34:32;102223.91;;;13.35;26.50
45763;BME280;37512;52.408;13.356;2023-03-01T14:38:35;102218.13;;;13.07;27.25
45763;BME280;37512;52.408;13.356;2023-03-01T14:42:37;102212.50;;;13.77;26.62
45763;BME280;37512;52.408;13.356;2023-03-01T14:46:41;102208.28;;;13.95;26.55
45763;BME280;37512;52.408;13.356;2023-03-01T14:50:44;102205.06;;;12.74;26.73
45763;BME280;37512;52.408;13.356;2023-03-01T14:54:54;102208.75;;;13.11;26.53
45763;BME280;37512;52.408;13.356;2023-03-01T14:58:58;102205.38;;;13.79;25.92
45763;BME280;37512;52.408;13.356;2023-03-01T15:03:06;102199.28;;;12.04;27.20
45763;BME280;37512;52.408;13.356;2023-03-01T15:07:17;102204.56;;;13.17;26.51
45763;BME280;37512;52.408;13.356;2023-03-01T15:11:42;102200.06;;;13.37;27.85
45763;BME280;37512;52.408;13.356;2023-03-01T15:16:11;102200.19;;;13.78;26.93
45763;BME280;37512;52.408;13.356;2023-03-01T15:25:44;102197.25;;;12.67;29.08
45763;BME280;37512;52.408;13.356;2023-03-01T15:29:56;102204.31;;;11.89;30.38
45763;BME280;37512;52.408;13.356;2023-03-01T15:34:25;102200.44;;;12.78;28.93
45763;BME280;37512;52.408;13.356;2023-03-01T15:38:36;102194.81;;;13.24;29.80
45763;BME280;37512;52.408;13.356;2023-03-01T15:42:43;102181.16;;;12.73;29.30
45763;BME280;37512;52.408;13.356;2023-03-01T15:46:47;102183.69;;;12.11;29.93
45763;BME280;37512;52.408;13.356;2023-03-01T15:50:57;102188.28;;;11.57;31.00
45763;BME280;37512;52.408;13.356;2023-03-01T15:54:59;102186.94;;;11.92;30.67
45763;BME280;37512;52.408;13.356;2023-03-01T15:59:02;102187.38;;;11.05;32.36
45763;BME280;37512;52.408;13.356;2023-03-01T16:03:04;102174.84;;;10.91;32.38
45763;BME280;37512;52.408;13.356;2023-03-01T16:07:06;102168.66;;;10.76;32.71
45763;BME280;37512;52.408;13.356;2023-03-01T16:11:17;102166.88;;;9.50;33.96
45763;BME280;37512;52.408;13.356;2023-03-01T16:15:30;102174.41;;;9.67;33.60
45763;BME280;37512;52.408;13.356;2023-03-01T16:19:33;102162.53;;;9.83;34.05
45763;BME280;37512;52.408;13.356;2023-03-01T16:23:35;102169.41;;;9.20;34.98
45763;BME280;37512;52.408;13.356;2023-03-01T16:27:37;102159.47;;;8.56;36.22
45763;BME280;37512;52.408;13.356;2023-03-01T16:31:39;102156.41;;;7.99;36.98
45763;BME280;37512;52.408;13.356;2023-03-01T16:35:40;102155.03;;;8.10;37.53
45763;BME280;37512;52.408;13.356;2023-03-01T16:39:42;102160.13;;;7.44;38.93
45763;BME280;37512;52.408;13.356;2023-03-01T16:43:44;102165.63;;;6.75;40.60
45763;BME280;37512;52.408;13.356;2023-03-01T16:47:48;102164.00;;;7.43;40.55
45763;BME280;37512;52.408;13.356;2023-03-01T16:51:49;102170.66;;;7.28;40.53
45763;BME280;37512;52.408;13.356;2023-03-01T16:55:56;102169.00;;;7.27;41.02
45763;BME280;37512;52.408;13.356;2023-03-01T16:59:57;102179.75;;;7.15;41.67
45763;BME280;37512;52.408;13.356;2023-03-01T17:03:59;102176.75;;;6.98;43.06
45763;BME280;37512;52.408;13.356;2023-03-01T17:08:02;102179.31;;;6.80;43.34
45763;BME280;37512;52.408;13.356;2023-03-01T17:12:04;102173.16;;;6.69;44.02
45763;BME280;37512;52.408;13.356;2023-03-01T17:16:08;102174.28;;;6.68;44.17
45763;BME280;37512;52.408;13.356;2023-03-01T17:20:11;102179.09;;;6.44;44.89
45763;BME280;37512;52.408;13.356;2023-03-01T17:24:13;102179.72;;;6.22;45.78
45763;BME280;37512;52.408;13.356;2023-03-01T17:28:14;102184.94;;;5.42;47.99
45763;BME280;37512;52.408;13.356;2023-03-01T17:32:16;102182.53;;;5.79;47.32
45763;BME280;37512;52.408;13.356;2023-03-01T17:36:18;102179.13;;;5.87;47.36
45763;BME280;37512;52.408;13.356;2023-03-01T17:40:19;102194.69;;;5.78;47.79
45763;BME280;37512;52.408;13.356;2023-03-01T17:44:21;102189.09;;;5.64;47.92
45763;BME280;37512;52.408;13.356;2023-03-01T17:48:22;102196.19;;;5.46;48.22
45763;BME280;37512;52.408;13.356;2023-03-01T17:52:24;102197.03;;;5.22;49.31
45763;BME280;37512;52.408;13.356;2023-03-01T17:56:26;102189.13;;;5.16;48.69
45763;BME280;37512;52.408;13.356;2023-03-01T18:00:27;102188.81;;;4.93;49.77
45763;BME280;37512;52.408;13.356;2023-03-01T18:04:29;102189.53;;;5.04;49.85
45763;BME280;37512;52.408;13.356;2023-03-01T18:08:30;102189.88;;;4.97;49.98
45763;BME280;37512;52.408;13.356;2023-03-01T18:12:32;102197.31;;;4.68;50.65
45763;BME280;37512;52.408;13.356;2023-03-01T18:16:33;102201.47;;;4.60;51.42
45763;BME280;37512;52.408;13.356;2023-03-01T18:20:35;102204.03;;;4.51;50.89
45763;BME280;37512;52.408;13.356;2023-03-01T18:24:38;102202.66;;;4.49;50.95
45763;BME280;37512;52.408;13.356;2023-03-01T18:28:41;102200.06;;;4.33;50.81
45763;BME280;37512;52.408;13.356;2023-03-01T18:32:43;102196.72;;;3.97;52.01
45763;BME280;37512;52.408;13.356;2023-03-01T18:36:45;102191.09;;;3.73;53.26
45763;BME280;37512;52.408;13.356;2023-03-01T18:41:07;102198.63;;;3.42;53.94
45763;BME280;37512;52.408;13.356;2023-03-01T18:45:09;102195.69;;;3.88;53.71
45763;BME280;37512;52.408;13.356;2023-03-01T18:49:12;102197.34;;;3.78;54.37
45763;BME280;37512;52.408;13.356;2023-03-01T18:53:13;102194.72;;;3.63;55.95
45763;BME280;37512;52.408;13.356;2023-03-01T18:57:15;102194.94;;;3.67;56.49
45763;BME280;37512;52.408;13.356;2023-03-01T19:01:25;102184.25;;;2.85;61.42
45763;BME280;37512;52.408;13.356;2023-03-01T19:05:27;102192.09;;;3.38;59.52
45763;BME280;37512;52.408;13.356;2023-03-01T19:09:29;102188.75;;;3.41;59.28
45763;BME280;37512;52.408;13.356;2023-03-01T19:13:32;102190.72;;;3.30;59.41
45763;BME280;37512;52.408;13.356;2023-03-01T19:17:34;102193.00;;;2.97;61.49
45763;BME280;37512;52.408;13.356;2023-03-01T19:21:36;102194.97;;;2.76;63.52
45763;BME280;37512;52.408;13.356;2023-03-01T19:25:37;102193.31;;;2.85;63.66
45763;BME280;37512;52.408;13.356;2023-03-01T19:29:39;102199.88;;;2.84;63.67
45763;BME280;37512;52.408;13.356;2023-03-01T19:33:40;102194.66;;;2.83;63.75
45763;BME280;37512;52.408;13.356;2023-03-01T19:37:42;102201.28;;;2.71;64.22
45763;BME280;37512;52.408;13.356;2023-03-01T19:41:44;102201.00;;;2.63;64.65
45763;BME280;37512;52.408;13.356;2023-03-01T19:45:51;102197.72;;;2.35;65.64
45763;BME280;37512;52.408;13.356;2023-03-01T19:49:53;102205.94;;;2.40;65.73
45763;BME280;37512;52.408;13.356;2023-03-01T19:53:55;102211.13;;;2.37;65.62
45763;BME280;37512;52.408;13.356;2023-03-01T19:57:56;102214.69;;;2.17;68.14
45763;BME280;37512;52.408;13.356;2023-03-01T20:01:58;102218.22;;;2.12;67.86
45763;BME280;37512;52.408;13.356;2023-03-01T20:06:07;102208.06;;;1.97;69.08
45763;BME280;37512;52.408;13.356;2023-03-01T20:10:09;102196.25;;;1.81;68.41
45763;BME280;37512;52.408;13.356;2023-03-01T20:14:11;102197.56;;;1.63;69.35
45763;BME280;37512;52.408;13.356;2023-03-01T20:18:13;102215.03;;;1.57;70.50
45763;BME280;37512;52.408;13.356;2023-03-01T20:22:15;102212.31;;;1.57;71.00
45763;BME280;37512;52.408;13.356;2023-03-01T20:26:19;102212.59;;;1.56;71.66
45763;BME280;37512;52.408;13.356;2023-03-01T20:30:21;102210.34;;;1.37;75.13
45763;BME280;37512;52.408;13.356;2023-03-01T20:34:23;102204.06;;;1.42;75.00
45763;BME280;37512;52.408;13.356;2023-03-01T20:38:24;102198.84;;;1.40;76.12
45763;BME280;37512;52.408;13.356;2023-03-01T20:42:26;102188.72;;;1.41;76.43
45763;BME280;37512;52.408;13.356;2023-03-01T20:46:28;102195.00;;;1.41;77.11
45763;BME280;37512;52.408;13.356;2023-03-01T20:50:33;102194.66;;;1.28;79.33
45763;BME280;37512;52.408;13.356;2023-03-01T20:54:35;102197.69;;;1.26;80.78
45763;BME280;37512;52.408;13.356;2023-03-01T20:58:37;102186.78;;;1.36;80.69
45763;BME280;37512;52.408;13.356;2023-03-01T21:02:38;102194.50;;;1.44;80.63
45763;BME280;37512;52.408;13.356;2023-03-01T21:06:40;102192.31;;;1.46;80.36
45763;BME280;37512;52.408;13.356;2023-03-01T21:10:48;102195.31;;;1.45;80.91
45763;BME280;37512;52.408;13.356;2023-03-01T21:14:50;102194.47;;;1.39;81.62
45763;BME280;37512;52.408;13.356;2023-03-01T21:18:53;102191.69;;;1.34;82.51
45763;BME280;37512;52.408;13.356;2023-03-01T21:22:55;102187.31;;;1.33;82.91
45763;BME280;37512;52.408;13.356;2023-03-01T21:26:59;102188.63;;;1.20;83.70
45763;BME280;37512;52.408;13.356;2023-03-01T21:31:10;102192.16;;;1.16;85.11
45763;BME280;37512;52.408;13.356;2023-03-01T21:35:13;102193.75;;;1.07;86.02
45763;BME280;37512;52.408;13.356;2023-03-01T21:39:14;102182.50;;;1.66;100.00
45763;BME280;37512;52.408;13.356;2023-03-01T21:43:16;102187.63;;;1.42;88.07
45763;BME280;37512;52.408;13.356;2023-03-01T21:47:17;102179.84;;;1.18;87.62
45763;BME280;37512;52.408;13.356;2023-03-01T21:51:21;102184.81;;;1.21;88.63
45763;BME280;37512;52.408;13.356;2023-03-01T21:55:23;102186.66;;;1.11;89.53
45763;BME280;37512;52.408;13.356;2023-03-01T21:59:24;102188.28;;;1.12;89.15
45763;BME280;37512;52.408;13.356;2023-03-01T22:03:27;102183.09;;;1.10;90.12
45763;BME280;37512;52.408;13.356;2023-03-01T22:07:29;102183.91;;;1.06;90.37
45763;BME280;37512;52.408;13.356;2023-03-01T22:11:33;102184.97;;;1.04;89.98
45763;BME280;37512;52.408;13.356;2023-03-01T22:15:39;102184.41;;;0.97;91.14
45763;BME280;37512;52.408;13.356;2023-03-01T22:19:41;102185.19;;;0.93;91.88
45763;BME280;37512;52.408;13.356;2023-03-01T22:23:43;102185.38;;;0.76;92.97
45763;BME280;37512;52.408;13.356;2023-03-01T22:27:44;102194.28;;;0.66;94.00
45763;BME280;37512;52.408;13.356;2023-03-01T22:31:46;102178.66;;;0.56;95.23
45763;BME280;37512;52.408;13.356;2023-03-01T22:35:48;102182.13;;;0.47;96.46
45763;BME280;37512;52.408;13.356;2023-03-01T22:39:49;102173.03;;;0.36;97.61
45763;BME280;37512;52.408;13.356;2023-03-01T22:43:51;102166.50;;;0.37;97.84
45763;BME280;37512;52.408;13.356;2023-03-01T22:47:52;102169.44;;;0.30;97.51
45763;BME280;37512;52.408;13.356;2023-03-01T22:51:54;102160.38;;;0.25;98.17
45763;BME280;37512;52.408;13.356;2023-03-01T22:55:55;102159.88;;;0.28;99.72